Suifenhe, China
Current Conditions -  °F | °C
As of 6:30 AM on Monday 24 Nov 2014 (Local Time) from UHWW Reporting Station
Clear Clear  
Wind Chill: 25°   Ceiling: Unl
Heat Index: 25°   Visibility: 6mi
Dew Point: 21°   Wind: 2mph
Humidity: 86%   Direction: NA
Pressure: 30.15"   Gusts: NA
Location:  44.4°N, 131.14°E
Report Text: UHWW 232230Z VRB01MPS 9999 SKC M04/M06 Q1021 NOSIG RMKQFE764/1019 25CLRD70
Loading
Personal Weather Stations






























Interactive Weather Map New forecast layout! Learn more

10-Day Weather Forecast

Advertisements
Track Severe Weather on mobile